createdAt,value
2018-06-28T00:02:26.910Z,15.16
2018-06-28T00:04:59.257Z,15.16
2018-06-28T00:07:31.622Z,15.05
2018-06-28T00:10:03.805Z,15.03
2018-06-28T00:12:35.988Z,15.02
2018-06-28T00:15:08.245Z,15.03
2018-06-28T00:17:40.413Z,14.98
2018-06-28T00:20:12.587Z,14.92
2018-06-28T00:22:44.699Z,14.95
2018-06-28T00:25:17.098Z,14.93
2018-06-28T00:27:49.217Z,14.89
2018-06-28T00:30:21.405Z,14.77
2018-06-28T00:32:53.701Z,14.80
2018-06-28T00:35:25.831Z,14.73
2018-06-28T00:37:57.956Z,14.69
2018-06-28T00:40:30.067Z,14.85
2018-06-28T00:43:02.236Z,14.84
2018-06-28T00:45:34.395Z,14.83
2018-06-28T00:48:06.776Z,14.79
2018-06-28T00:50:38.945Z,14.75
2018-06-28T00:53:11.151Z,14.91
2018-06-28T00:55:43.244Z,15.01
2018-06-28T00:58:15.669Z,14.99
2018-06-28T01:00:47.749Z,15.03
2018-06-28T01:03:19.905Z,15.01
2018-06-28T01:05:52.098Z,14.98
2018-06-28T01:08:24.220Z,14.87
2018-06-28T01:10:56.419Z,14.87
2018-06-28T01:13:28.516Z,14.87
2018-06-28T01:16:00.633Z,14.85
2018-06-28T01:18:32.725Z,14.82
2018-06-28T01:21:04.872Z,14.81
2018-06-28T01:23:36.964Z,14.84
2018-06-28T01:26:09.068Z,14.79
2018-06-28T01:28:41.150Z,14.74
2018-06-28T01:31:13.285Z,14.72
2018-06-28T01:33:45.404Z,14.66
2018-06-28T01:36:17.483Z,14.55
2018-06-28T01:38:49.577Z,14.54
2018-06-28T01:41:21.658Z,14.57
2018-06-28T01:43:53.688Z,14.58
2018-06-28T01:46:25.781Z,14.57
2018-06-28T01:48:57.835Z,14.66
2018-06-28T01:51:29.970Z,14.56
2018-06-28T01:54:02.073Z,14.54
2018-06-28T01:56:34.137Z,14.48
2018-06-28T01:59:06.195Z,14.54
2018-06-28T02:01:38.302Z,14.63
2018-06-28T02:04:10.403Z,14.64
2018-06-28T02:06:42.497Z,14.58
2018-06-28T02:09:14.580Z,14.57
2018-06-28T02:11:46.736Z,14.56
2018-06-28T02:14:18.808Z,14.57
2018-06-28T02:16:51.027Z,14.54
2018-06-28T02:19:23.133Z,14.48
2018-06-28T02:21:55.239Z,14.46
2018-06-28T02:24:27.675Z,14.48
2018-06-28T02:26:59.820Z,14.48
2018-06-28T02:29:31.988Z,14.40
2018-06-28T02:32:04.131Z,13.23
2018-06-28T02:34:36.278Z,14.36
2018-06-28T02:37:08.373Z,14.32
2018-06-28T02:39:40.535Z,14.43
2018-06-28T02:42:12.684Z,14.33
2018-06-28T02:44:44.824Z,14.38
2018-06-28T02:47:17.141Z,14.40
2018-06-28T02:49:49.291Z,14.33
2018-06-28T02:52:21.367Z,14.47
2018-06-28T02:54:53.536Z,14.56
2018-06-28T02:57:25.758Z,14.54
2018-06-28T02:59:58.157Z,14.49
2018-06-28T03:02:30.493Z,14.49
2018-06-28T03:05:02.732Z,14.45
2018-06-28T03:07:34.984Z,14.43
2018-06-28T03:10:07.122Z,14.43
2018-06-28T03:12:39.185Z,14.38
2018-06-28T03:15:11.267Z,14.48
2018-06-28T03:17:43.378Z,14.42
2018-06-28T03:20:15.505Z,14.49
2018-06-28T03:22:48.304Z,14.50
2018-06-28T03:25:20.411Z,14.53
2018-06-28T03:27:52.515Z,14.54
2018-06-28T03:30:24.629Z,14.54
2018-06-28T03:32:59.024Z,14.70
2018-06-28T03:35:32.994Z,14.62
2018-06-28T03:38:05.247Z,14.61
2018-06-28T03:40:37.214Z,14.55
2018-06-28T03:43:09.304Z,14.53
2018-06-28T03:45:41.399Z,14.55
2018-06-28T03:48:16.583Z,14.51
2018-06-28T03:50:55.697Z,14.57
2018-06-28T03:57:53.232Z,14.52
2018-06-28T04:00:25.219Z,14.51
2018-06-28T04:02:57.925Z,14.24
2018-06-28T04:05:29.985Z,14.49
2018-06-28T04:08:02.020Z,14.44
2018-06-28T04:10:34.092Z,14.39
2018-06-28T04:13:06.139Z,14.31
2018-06-28T04:15:38.143Z,14.31
2018-06-28T04:18:10.201Z,14.31
2018-06-28T04:20:42.215Z,14.26
2018-06-28T04:23:14.261Z,14.24
2018-06-28T04:25:46.493Z,14.21
2018-06-28T04:28:18.524Z,14.23
2018-06-28T04:30:50.524Z,14.23
2018-06-28T04:33:22.584Z,14.24
2018-06-28T04:35:54.616Z,14.28
2018-06-28T04:38:26.590Z,14.23
2018-06-28T04:40:58.631Z,14.26
2018-06-28T04:43:30.627Z,14.26
2018-06-28T04:46:02.645Z,14.28
2018-06-28T04:48:34.702Z,14.27
2018-06-28T04:51:06.722Z,14.28
2018-06-28T04:53:38.755Z,14.25
2018-06-28T04:56:10.860Z,14.29
2018-06-28T04:58:42.895Z,14.29
2018-06-28T05:01:14.928Z,14.34
2018-06-28T05:03:46.911Z,14.34
2018-06-28T05:06:18.911Z,14.36
2018-06-28T05:08:50.920Z,14.30
2018-06-28T05:11:22.965Z,14.30
2018-06-28T05:13:54.962Z,14.26
2018-06-28T05:16:26.950Z,14.24
2018-06-28T05:18:58.990Z,14.36
2018-06-28T05:21:31.091Z,14.39
2018-06-28T05:24:03.128Z,14.46
2018-06-28T05:26:35.116Z,14.44
2018-06-28T05:29:07.156Z,14.47
2018-06-28T05:31:39.156Z,14.45
2018-06-28T05:34:11.318Z,14.45
2018-06-28T05:36:43.287Z,14.52
2018-06-28T05:39:15.296Z,14.62
2018-06-28T05:41:47.295Z,14.61
2018-06-28T05:44:19.341Z,14.66
2018-06-28T05:46:51.403Z,14.67
2018-06-28T05:49:23.431Z,14.73
2018-06-28T05:51:55.431Z,14.74
2018-06-28T05:54:27.417Z,14.73
2018-06-28T05:56:59.546Z,14.68
2018-06-28T05:59:31.576Z,14.62
2018-06-28T06:02:03.731Z,14.62
2018-06-28T06:04:35.801Z,14.53
2018-06-28T06:07:07.778Z,14.59
2018-06-28T06:09:39.794Z,14.67
2018-06-28T06:12:11.837Z,14.68
2018-06-28T06:14:43.844Z,14.75
2018-06-28T06:17:15.867Z,14.78
2018-06-28T06:19:47.914Z,14.81
2018-06-28T06:22:19.939Z,14.96
2018-06-28T06:24:51.959Z,15.00
2018-06-28T06:27:24.960Z,15.06
2018-06-28T06:29:56.975Z,15.03
2018-06-28T06:32:28.988Z,15.00
2018-06-28T06:35:01.029Z,15.02
2018-06-28T06:37:33.035Z,15.01
2018-06-28T06:40:05.072Z,14.96
2018-06-28T06:42:37.060Z,14.94
2018-06-28T06:45:09.071Z,14.98
2018-06-28T06:47:41.068Z,14.97
2018-06-28T06:50:13.128Z,14.98
2018-06-28T06:52:45.218Z,15.01
2018-06-28T06:55:17.235Z,14.95
2018-06-28T06:57:49.253Z,15.01
2018-06-28T07:00:21.421Z,15.07
2018-06-28T07:02:53.303Z,15.12
2018-06-28T07:05:25.428Z,15.26
2018-06-28T07:08:04.124Z,15.34
2018-06-28T07:10:36.211Z,15.38
2018-06-28T07:13:08.234Z,15.33
2018-06-28T07:15:40.358Z,15.40
2018-06-28T07:18:12.318Z,15.40
2018-06-28T07:20:44.416Z,15.34
2018-06-28T07:23:16.480Z,15.39
2018-06-28T07:25:48.576Z,15.53
2018-06-28T07:28:20.741Z,15.52
2018-06-28T07:30:52.709Z,15.65
2018-06-28T07:33:24.733Z,15.79
2018-06-28T07:35:56.765Z,15.94
2018-06-28T07:38:28.765Z,16.00
2018-06-28T07:41:00.841Z,16.01
2018-06-28T07:43:32.852Z,16.10
2018-06-28T07:46:04.924Z,16.15
2018-06-28T07:48:36.927Z,16.07
2018-06-28T07:51:08.957Z,16.14
2018-06-28T07:53:40.975Z,16.15
2018-06-28T07:56:12.991Z,16.21
2018-06-28T07:58:45.019Z,16.14
2018-06-28T08:01:17.028Z,16.29
2018-06-28T08:03:49.326Z,16.42
2018-06-28T08:06:21.337Z,16.29
2018-06-28T08:08:53.346Z,16.19
2018-06-28T08:14:04.047Z,16.17
2018-06-28T08:16:36.088Z,16.11
2018-06-28T08:19:08.073Z,16.21
2018-06-28T08:21:40.081Z,16.26
2018-06-28T08:24:12.064Z,16.38
2018-06-28T08:26:44.123Z,16.54
2018-06-28T08:29:16.172Z,16.59
2018-06-28T08:31:48.171Z,16.63
2018-06-28T08:34:20.172Z,16.63
2018-06-28T08:36:52.242Z,16.86
2018-06-28T08:39:24.239Z,16.96
2018-06-28T08:41:56.320Z,16.89
2018-06-28T08:44:28.362Z,16.93
2018-06-28T08:47:00.411Z,16.83
2018-06-28T08:49:32.431Z,16.81
2018-06-28T08:52:04.528Z,16.92
2018-06-28T08:54:36.636Z,16.97
2018-06-28T08:57:08.664Z,17.06
2018-06-28T08:59:40.719Z,17.12
2018-06-28T09:02:12.760Z,16.95
2018-06-28T09:04:44.741Z,16.91
2018-06-28T09:07:16.815Z,16.91
2018-06-28T09:09:48.843Z,16.90
2018-06-28T09:12:20.952Z,16.88
2018-06-28T09:14:52.984Z,16.77
2018-06-28T09:17:25.095Z,16.73
2018-06-28T09:19:57.158Z,16.63
2018-06-28T09:22:29.245Z,16.55
2018-06-28T09:25:01.196Z,16.61
2018-06-28T09:27:33.190Z,16.61
2018-06-28T09:30:05.883Z,16.55
2018-06-28T09:32:37.915Z,16.57
2018-06-28T09:35:09.908Z,16.57
2018-06-28T09:37:41.959Z,16.59
2018-06-28T09:40:13.972Z,16.60
2018-06-28T09:42:46.047Z,16.65
2018-06-28T09:45:18.103Z,16.72
2018-06-28T09:47:50.195Z,16.78
2018-06-28T09:50:22.243Z,16.77
2018-06-28T09:52:54.222Z,16.76
2018-06-28T09:55:26.240Z,16.86
2018-06-28T09:57:58.262Z,16.97
2018-06-28T10:00:36.214Z,16.99
2018-06-28T10:03:08.127Z,16.99
2018-06-28T10:05:40.240Z,17.12
2018-06-28T10:08:13.386Z,17.10
2018-06-28T10:10:45.372Z,17.07
2018-06-28T10:13:17.433Z,17.07
2018-06-28T10:15:50.156Z,17.14
2018-06-28T10:18:22.197Z,17.19
2018-06-28T10:20:54.223Z,17.25
2018-06-28T10:23:26.239Z,17.40
2018-06-28T10:25:58.239Z,17.52
2018-06-28T10:28:30.262Z,17.58
2018-06-28T10:31:02.348Z,17.71
2018-06-28T10:33:34.373Z,17.85
2018-06-28T10:36:06.452Z,17.91
2018-06-28T10:38:38.486Z,17.93
2018-06-28T10:41:10.501Z,17.84
2018-06-28T10:43:42.530Z,17.88
2018-06-28T10:46:14.587Z,17.77
2018-06-28T10:48:46.596Z,17.54
2018-06-28T10:51:18.658Z,17.47
2018-06-28T10:53:50.655Z,17.26
2018-06-28T10:56:22.735Z,17.25
2018-06-28T10:58:54.727Z,17.26
2018-06-28T11:01:26.795Z,17.21
2018-06-28T11:03:58.868Z,17.00
2018-06-28T11:06:30.874Z,16.98
2018-06-28T11:09:05.203Z,16.82
2018-06-28T11:11:37.523Z,16.77
2018-06-28T11:14:09.567Z,16.89
2018-06-28T11:16:41.596Z,16.75
2018-06-28T11:19:13.612Z,16.79
2018-06-28T11:21:45.615Z,16.68
2018-06-28T11:24:17.663Z,16.75
2018-06-28T11:26:49.696Z,16.68
2018-06-28T11:29:21.694Z,16.70
2018-06-28T11:31:53.728Z,16.72
2018-06-28T11:34:25.726Z,16.67
2018-06-28T11:36:57.806Z,16.74
2018-06-28T11:39:29.829Z,16.76
2018-06-28T11:42:01.894Z,16.78
2018-06-28T11:44:33.930Z,16.76
2018-06-28T11:47:05.992Z,16.70
2018-06-28T11:49:38.054Z,16.65
2018-06-28T11:52:10.096Z,16.62
2018-06-28T11:54:42.082Z,16.70
2018-06-28T11:57:14.085Z,16.72
2018-06-28T11:59:46.115Z,16.80
2018-06-28T12:02:18.340Z,16.92
2018-06-28T12:04:50.408Z,16.94
2018-06-28T12:07:22.446Z,17.01
2018-06-28T12:09:54.444Z,17.12
2018-06-28T12:12:26.460Z,17.27
2018-06-28T12:14:58.496Z,17.59
2018-06-28T12:17:30.504Z,17.71
2018-06-28T12:20:02.590Z,17.90
2018-06-28T12:22:35.381Z,17.91
2018-06-28T12:25:07.429Z,17.88
2018-06-28T12:27:39.454Z,17.92
2018-06-28T12:30:11.498Z,17.75
2018-06-28T12:32:43.514Z,17.61
2018-06-28T12:35:15.595Z,17.53
2018-06-28T12:37:47.575Z,17.46
2018-06-28T12:40:19.626Z,17.42
2018-06-28T12:42:51.616Z,17.48
2018-06-28T12:45:23.659Z,17.41
2018-06-28T12:48:12.772Z,17.39
2018-06-28T12:50:44.786Z,17.32
2018-06-28T12:53:16.848Z,17.27
2018-06-28T12:56:22.358Z,17.24
2018-06-28T12:58:55.850Z,17.22
2018-06-28T13:01:28.233Z,17.22
2018-06-28T13:04:00.266Z,17.23
2018-06-28T13:06:32.311Z,17.25
2018-06-28T13:09:10.668Z,17.25
2018-06-28T13:11:42.713Z,17.21
2018-06-28T13:14:14.733Z,17.17
2018-06-28T13:16:46.999Z,17.00
2018-06-28T13:19:18.964Z,16.90
2018-06-28T13:21:50.963Z,16.80
2018-06-28T13:24:23.067Z,16.66
2018-06-28T13:26:55.149Z,16.53
2018-06-28T13:29:27.159Z,16.52
2018-06-28T13:31:59.196Z,16.46
2018-06-28T13:34:31.174Z,16.40
2018-06-28T13:37:03.331Z,16.35
2018-06-28T13:39:35.310Z,16.26
2018-06-28T13:42:07.398Z,16.27
2018-06-28T13:44:39.468Z,16.24
2018-06-28T13:47:11.498Z,16.20
2018-06-28T13:49:43.471Z,16.23
2018-06-28T13:52:15.454Z,16.22
2018-06-28T13:54:47.455Z,16.18
2018-06-28T13:57:19.532Z,16.22
2018-06-28T13:59:51.513Z,16.25
2018-06-28T14:02:23.510Z,16.36
2018-06-28T14:04:55.504Z,16.37
2018-06-28T14:07:27.499Z,16.42
2018-06-28T14:09:59.480Z,16.51
2018-06-28T14:12:31.504Z,16.48
2018-06-28T14:15:11.035Z,16.49
2018-06-28T14:17:43.019Z,16.44
2018-06-28T14:20:15.067Z,16.50
2018-06-28T14:22:47.309Z,16.46
2018-06-28T14:25:19.321Z,16.56
2018-06-28T14:27:51.322Z,16.57
2018-06-28T14:30:23.298Z,16.54
2018-06-28T14:32:55.280Z,16.56
2018-06-28T14:35:27.256Z,16.59
2018-06-28T14:37:59.277Z,16.63
2018-06-28T14:40:31.270Z,16.61
2018-06-28T14:43:03.283Z,16.53
2018-06-28T14:45:35.295Z,16.54
2018-06-28T14:48:07.306Z,16.51
2018-06-28T14:50:39.313Z,16.45
2018-06-28T14:53:11.367Z,16.44
2018-06-28T14:55:43.362Z,16.42
2018-06-28T14:58:15.343Z,16.39
2018-06-28T15:00:47.350Z,16.34
2018-06-28T15:03:19.347Z,16.34
2018-06-28T15:06:15.217Z,16.33
2018-06-28T15:08:47.426Z,16.27
2018-06-28T15:11:19.669Z,16.29
2018-06-28T15:13:53.152Z,16.29
2018-06-28T15:16:26.747Z,16.30
2018-06-28T15:18:59.652Z,16.24
2018-06-28T15:21:32.205Z,16.23
2018-06-28T15:24:04.496Z,16.20
2018-06-28T15:26:36.644Z,16.13
2018-06-28T15:29:09.870Z,16.07
2018-06-28T15:31:44.979Z,16.05
2018-06-28T15:34:22.790Z,16.05
2018-06-28T15:36:59.330Z,16.08
2018-06-28T15:39:32.772Z,16.11
2018-06-28T15:42:07.387Z,16.05
2018-06-28T15:44:39.853Z,16.02
2018-06-28T15:47:13.156Z,16.01
2018-06-28T15:49:45.470Z,16.00
2018-06-28T15:52:20.440Z,15.95
2018-06-28T15:54:53.985Z,15.94
2018-06-28T15:57:28.042Z,15.97
2018-06-28T16:00:01.392Z,15.96
2018-06-28T16:02:34.607Z,16.01
2018-06-28T16:05:09.815Z,16.04
2018-06-28T16:07:41.964Z,16.07
2018-06-28T16:10:14.845Z,16.01
2018-06-28T16:12:47.431Z,16.03
2018-06-28T16:15:20.280Z,16.00
2018-06-28T16:17:52.477Z,15.96
2018-06-28T16:20:28.631Z,15.97
2018-06-28T16:23:01.104Z,15.92
2018-06-28T16:25:37.640Z,15.94
2018-06-28T16:28:15.945Z,15.95
2018-06-28T16:30:55.184Z,15.98
2018-06-28T16:33:45.020Z,16.00
2018-06-28T16:36:17.945Z,15.98
2018-06-28T16:41:27.760Z,15.91
2018-06-28T16:44:01.080Z,15.89
2018-06-28T16:46:35.178Z,15.91
2018-06-28T16:49:09.516Z,15.87
2018-06-28T16:51:42.990Z,15.87
2018-06-28T16:54:23.136Z,15.86
2018-06-28T16:56:55.385Z,15.84
2018-06-28T16:59:28.333Z,15.89
2018-06-28T17:02:04.029Z,15.85
2018-06-28T17:04:36.120Z,15.88
2018-06-28T17:07:08.262Z,15.91
2018-06-28T17:09:40.451Z,15.86
2018-06-28T17:12:13.421Z,15.87
2018-06-28T17:14:45.654Z,15.85
2018-06-28T17:17:17.821Z,15.88
2018-06-28T17:19:49.883Z,15.91
2018-06-28T17:22:22.026Z,15.90
2018-06-28T17:24:54.191Z,15.89
2018-06-28T17:27:26.325Z,15.88
2018-06-28T17:29:58.537Z,15.91
2018-06-28T17:32:30.698Z,15.93
2018-06-28T17:35:06.104Z,15.91
2018-06-28T17:37:38.268Z,15.90
2018-06-28T17:40:11.014Z,15.88
2018-06-28T17:42:43.173Z,15.87
2018-06-28T17:45:17.410Z,15.83
2018-06-28T17:47:49.859Z,15.88
2018-06-28T17:50:21.955Z,15.90
2018-06-28T17:52:54.064Z,15.92
2018-06-28T17:55:26.220Z,15.92
2018-06-28T17:57:58.443Z,15.93
2018-06-28T18:00:31.649Z,15.92
2018-06-28T18:03:03.935Z,15.94
2018-06-28T18:05:36.242Z,15.97
2018-06-28T18:08:09.128Z,15.93
2018-06-28T18:10:42.114Z,15.94
2018-06-28T18:13:20.605Z,15.97
2018-06-28T18:15:52.936Z,15.95
2018-06-28T18:18:25.649Z,15.95
2018-06-28T18:21:00.520Z,15.98
2018-06-28T18:23:32.875Z,15.97
2018-06-28T18:26:07.283Z,15.99
2018-06-28T18:28:42.382Z,16.00
2018-06-28T18:31:25.170Z,16.02
2018-06-28T18:33:59.369Z,16.02
2018-06-28T18:36:44.138Z,16.05
2018-06-28T18:42:25.148Z,16.17
2018-06-28T18:48:03.951Z,16.07
2018-06-28T18:50:36.203Z,16.04
2018-06-28T18:53:08.421Z,16.10
2018-06-28T18:55:41.174Z,16.08
2018-06-28T18:58:14.591Z,16.05
2018-06-28T19:00:48.517Z,16.07
2018-06-28T19:03:24.566Z,16.10
2018-06-28T19:05:57.076Z,16.13
2018-06-28T19:08:48.697Z,16.08
2018-06-28T19:11:21.013Z,16.11
2018-06-28T19:14:01.901Z,16.10
2018-06-28T19:16:40.639Z,16.06
2018-06-28T19:19:14.332Z,16.09
2018-06-28T19:22:11.031Z,16.04
2018-06-28T19:24:43.316Z,16.07
2018-06-28T19:27:17.765Z,16.05
2018-06-28T19:29:55.512Z,16.04
2018-06-28T19:32:34.690Z,16.03
2018-06-28T19:35:06.911Z,16.01
2018-06-28T19:37:45.898Z,16.03
2018-06-28T19:40:30.288Z,16.06
2018-06-28T19:43:22.094Z,16.00
2018-06-28T19:48:55.217Z,15.83
2018-06-28T19:51:33.859Z,15.83
2018-06-28T19:54:06.149Z,15.84
2018-06-28T19:56:38.516Z,15.88
2018-06-28T20:02:31.329Z,15.86
2018-06-28T20:05:04.476Z,15.86
2018-06-28T20:07:36.637Z,15.85
2018-06-28T20:10:09.135Z,15.74
2018-06-28T20:12:46.785Z,15.88
2018-06-28T20:15:43.760Z,15.97
2018-06-28T20:18:37.601Z,15.91
2018-06-28T20:21:10.278Z,15.81
2018-06-28T20:23:43.420Z,15.83
2018-06-28T20:32:17.929Z,15.90
2018-06-28T20:34:50.106Z,15.86
2018-06-28T20:37:23.164Z,15.69
2018-06-28T20:39:55.453Z,15.91
2018-06-28T20:42:28.720Z,15.87
2018-06-28T20:51:00.176Z,15.79
2018-06-28T20:53:32.875Z,15.79
2018-06-28T20:56:24.806Z,15.83
2018-06-28T20:58:59.304Z,15.85
2018-06-28T21:01:43.400Z,15.80
2018-06-28T21:04:17.947Z,15.77
2018-06-28T21:06:50.200Z,15.73
2018-06-28T21:09:35.226Z,15.79
2018-06-28T21:12:09.436Z,15.81
2018-06-28T21:14:42.601Z,15.80
2018-06-28T21:17:16.474Z,15.77
2018-06-28T21:19:49.975Z,15.80
2018-06-28T21:22:23.629Z,15.80
2018-06-28T21:24:55.987Z,15.81
2018-06-28T21:27:40.756Z,15.78
2018-06-28T21:30:13.497Z,15.80
2018-06-28T21:32:45.826Z,15.87
2018-06-28T21:35:19.081Z,15.79
2018-06-28T21:37:53.742Z,15.79
2018-06-28T21:40:27.781Z,15.76
2018-06-28T21:43:00.413Z,15.76
2018-06-28T21:45:34.072Z,15.73
2018-06-28T21:48:28.936Z,15.72
2018-06-28T21:51:04.815Z,15.81
2018-06-28T21:53:38.260Z,15.78
2018-06-28T21:56:11.329Z,15.76
2018-06-28T21:58:47.301Z,15.71
2018-06-28T22:01:21.574Z,15.71
2018-06-28T22:03:54.149Z,15.79
2018-06-28T22:06:26.625Z,15.75
2018-06-28T22:09:00.485Z,15.77
2018-06-28T22:11:32.888Z,15.85
2018-06-28T22:14:10.493Z,15.87
2018-06-28T22:16:43.736Z,15.89
2018-06-28T22:19:16.210Z,15.77
2018-06-28T22:21:49.078Z,15.78
2018-06-28T22:24:26.336Z,15.83
2018-06-28T22:26:58.668Z,15.79
2018-06-28T22:29:31.519Z,15.80
2018-06-28T22:32:05.877Z,15.78
2018-06-28T22:34:38.222Z,15.75
2018-06-28T22:37:10.358Z,15.74
2018-06-28T22:39:42.547Z,15.75
2018-06-28T22:42:14.806Z,15.77
2018-06-28T22:44:47.009Z,15.81
2018-06-28T22:47:19.169Z,15.81
2018-06-28T22:49:51.560Z,15.85
2018-06-28T22:52:23.939Z,15.87
2018-06-28T22:54:56.613Z,15.83
2018-06-28T22:57:28.835Z,15.86
2018-06-28T23:00:01.096Z,15.80
2018-06-28T23:02:33.424Z,15.76
2018-06-28T23:05:05.693Z,15.81
2018-06-28T23:07:37.930Z,15.80
2018-06-28T23:10:10.202Z,15.84
2018-06-28T23:12:43.045Z,15.86
2018-06-28T23:15:15.324Z,15.83
2018-06-28T23:17:47.673Z,15.73
2018-06-28T23:20:20.010Z,15.72
2018-06-28T23:22:52.640Z,15.86
2018-06-28T23:25:24.978Z,15.85
2018-06-28T23:27:57.141Z,15.90
2018-06-28T23:30:29.357Z,15.92
2018-06-28T23:33:01.892Z,15.91
2018-06-28T23:35:34.163Z,15.93
2018-06-28T23:38:06.526Z,15.95
2018-06-28T23:40:38.807Z,15.90
2018-06-28T23:43:11.322Z,15.85
2018-06-28T23:45:44.515Z,15.85
2018-06-28T23:48:16.695Z,15.89
2018-06-28T23:50:49.013Z,15.89
2018-06-28T23:53:21.314Z,15.86
2018-06-28T23:55:53.499Z,15.82
2018-06-28T23:58:25.757Z,15.80
